Time,TemperatureF,DewpointF,PressureIn,WindDirection,WindDirectionDegrees,WindSpeedMPH,WindSpeedGustMPH,Humidity,HourlyPrecipIn,Conditions,Clouds,dailyrainin,SoftwareType,DateUTC
2016-07-23 00:04:00,71.7,71.7,30.06,SSE,153,0.0,0.0,100,0.00,,,0.00,TxWx,2016-07-23 04:04:00,
2016-07-23 00:09:00,71.7,71.7,30.05,SSE,161,0.0,0.0,100,0.00,,,0.00,TxWx,2016-07-23 04:09:00,
2016-07-23 00:14:00,71.7,71.7,30.05,NNE,33,0.0,0.0,100,0.00,,,0.00,TxWx,2016-07-23 04:14:00,
2016-07-23 00:19:00,71.6,71.6,30.05,North,4,0.0,0.0,100,0.00,,,0.00,TxWx,2016-07-23 04:19:00,
2016-07-23 00:24:00,71.4,71.4,30.05,NW,316,0.0,0.0,100,0.00,,,0.00,TxWx,2016-07-23 04:24:00,
2016-07-23 00:29:00,71.4,71.4,30.05,NNE,23,0.0,0.0,100,0.00,,,0.00,TxWx,2016-07-23 04:29:00,
2016-07-23 00:34:00,71.2,71.2,30.05,East,100,5.5,5.5,100,0.00,,,0.00,TxWx,2016-07-23 04:34:00,
2016-07-23 00:39:00,70.9,70.9,30.05,NE,55,3.5,3.5,100,0.00,,,0.00,TxWx,2016-07-23 04:39:00,
2016-07-23 00:44:00,70.7,70.7,30.05,NE,53,2.6,2.6,100,0.00,,,0.00,TxWx,2016-07-23 04:44:00,
2016-07-23 00:49:00,70.8,70.8,30.05,North,1,2.7,2.7,100,0.00,,,0.00,TxWx,2016-07-23 04:49:00,
2016-07-23 00:54:00,71.2,71.2,30.05,North,9,5.0,5.0,100,0.00,,,0.00,TxWx,2016-07-23 04:54:00,
2016-07-23 00:59:00,71.4,71.4,30.05,NNE,21,1.7,2.0,100,0.00,,,0.00,TxWx,2016-07-23 04:59:00,
2016-07-23 01:04:00,71.4,71.4,30.05,NW,323,0.0,0.0,100,0.00,,,0.00,TxWx,2016-07-23 05:04:00,
2016-07-23 01:09:00,71.1,71.1,30.05,NW,315,0.0,0.0,100,0.00,,,0.00,TxWx,2016-07-23 05:09:00,
2016-07-23 01:14:00,70.8,70.8,30.05,SSW,211,0.0,0.0,100,0.00,,,0.00,TxWx,2016-07-23 05:14:00,
2016-07-23 01:19:00,71.0,71.0,30.05,SSW,212,0.0,0.0,100,0.00,,,0.00,TxWx,2016-07-23 05:19:00,
2016-07-23 01:24:00,70.9,70.9,30.05,SSW,212,0.0,0.0,100,0.00,,,0.00,TxWx,2016-07-23 05:24:00,
2016-07-23 01:29:00,70.9,70.9,30.05,East,85,2.6,3.0,100,0.00,,,0.00,TxWx,2016-07-23 05:29:00,
2016-07-23 01:34:00,70.4,70.4,30.05,ENE,65,2.2,2.2,100,0.00,,,0.00,TxWx,2016-07-23 05:34:00,
2016-07-23 01:39:00,70.6,70.6,30.05,ESE,108,0.0,0.0,100,0.00,,,0.00,TxWx,2016-07-23 05:39:00,
2016-07-23 01:44:00,70.7,70.7,30.05,South,191,1.2,1.2,100,0.00,,,0.00,TxWx,2016-07-23 05:44:00,
2016-07-23 01:49:00,70.6,70.6,30.06,SSW,200,0.0,0.0,100,0.00,,,0.00,TxWx,2016-07-23 05:49:00,
2016-07-23 01:54:00,70.6,70.6,30.06,West,260,2.6,3.0,100,0.00,,,0.00,TxWx,2016-07-23 05:54:00,
2016-07-23 01:59:00,70.4,70.4,30.06,WNW,296,2.4,2.4,100,0.00,,,0.00,TxWx,2016-07-23 05:59:00,
2016-07-23 02:04:00,70.2,70.2,30.06,West,268,0.0,0.0,100,0.00,,,0.00,TxWx,2016-07-23 06:04:00,
2016-07-23 02:09:00,70.4,70.4,30.05,WNW,294,2.0,2.0,100,0.00,,,0.00,TxWx,2016-07-23 06:09:00,
2016-07-23 02:14:00,70.4,70.4,30.05,WNW,291,2.7,3.0,100,0.00,,,0.00,TxWx,2016-07-23 06:14:00,
2016-07-23 02:19:00,70.6,70.6,30.05,NW,305,3.9,4.0,100,0.00,,,0.00,TxWx,2016-07-23 06:19:00,
2016-07-23 02:24:00,70.6,70.6,30.05,West,277,2.0,2.0,100,0.00,,,0.00,TxWx,2016-07-23 06:24:00,
2016-07-23 02:29:00,70.9,70.9,30.05,WSW,246,2.0,2.0,100,0.00,,,0.00,TxWx,2016-07-23 06:29:00,
2016-07-23 02:34:00,71.0,71.0,30.05,West,281,0.0,0.0,100,0.00,,,0.00,TxWx,2016-07-23 06:34:00,
2016-07-23 02:39:00,71.0,71.0,30.04,North,353,0.2,0.0,100,0.00,,,0.00,TxWx,2016-07-23 06:39:00,
2016-07-23 02:44:00,70.9,70.9,30.04,NNE,12,3.2,3.2,100,0.00,,,0.00,TxWx,2016-07-23 06:44:00,
2016-07-23 02:49:00,71.0,71.0,30.04,North,355,1.2,1.2,100,0.00,,,0.00,TxWx,2016-07-23 06:49:00,
2016-07-23 02:54:00,70.8,70.8,30.04,WNW,289,2.4,2.4,100,0.00,,,0.00,TxWx,2016-07-23 06:54:00,
2016-07-23 02:59:00,70.6,70.6,30.04,NW,321,2.2,2.2,100,0.00,,,0.00,TxWx,2016-07-23 06:59:00,
2016-07-23 03:04:00,70.7,70.7,30.04,NW,319,4.2,4.2,100,0.01,,,0.01,TxWx,2016-07-23 07:04:00,
2016-07-23 03:09:00,70.8,70.8,30.04,NNW,336,3.2,3.2,100,0.01,,,0.01,TxWx,2016-07-23 07:09:00,
2016-07-23 03:14:00,71.0,71.0,30.04,North,9,2.0,2.0,100,0.01,,,0.01,TxWx,2016-07-23 07:14:00,
2016-07-23 03:19:00,71.0,71.0,30.04,North,6,1.7,1.7,100,0.01,,,0.01,TxWx,2016-07-23 07:19:00,
2016-07-23 03:24:00,70.9,70.9,30.04,NNE,23,0.0,0.0,100,0.01,,,0.01,TxWx,2016-07-23 07:24:00,
2016-07-23 03:29:00,70.7,70.7,30.04,SSW,194,2.4,3.0,100,0.01,,,0.01,TxWx,2016-07-23 07:29:00,
2016-07-23 03:34:00,70.6,70.6,30.04,SSE,156,0.0,0.0,100,0.01,,,0.01,TxWx,2016-07-23 07:34:00,
2016-07-23 03:39:00,70.6,70.6,30.03,NE,44,0.0,0.0,100,0.01,,,0.01,TxWx,2016-07-23 07:39:00,
2016-07-23 03:44:00,70.4,70.4,30.03,NE,47,2.2,2.2,100,0.01,,,0.01,TxWx,2016-07-23 07:44:00,
2016-07-23 03:49:00,70.3,70.3,30.03,ENE,59,0.9,0.0,100,0.01,,,0.01,TxWx,2016-07-23 07:49:00,
2016-07-23 03:54:00,70.3,70.3,30.03,ENE,68,0.0,0.0,100,0.01,,,0.01,TxWx,2016-07-23 07:54:00,
2016-07-23 03:59:00,70.4,70.4,30.03,East,94,0.0,0.0,100,0.01,,,0.01,TxWx,2016-07-23 07:59:00,
2016-07-23 04:04:00,70.5,70.5,30.02,East,99,0.0,0.0,100,0.00,,,0.01,TxWx,2016-07-23 08:04:00,
2016-07-23 04:09:00,70.4,70.4,30.02,SSE,162,0.0,0.0,100,0.00,,,0.01,TxWx,2016-07-23 08:09:00,
2016-07-23 04:14:00,70.4,70.4,30.02,NE,53,3.5,3.5,100,0.00,,,0.01,TxWx,2016-07-23 08:14:00,
2016-07-23 04:19:00,69.9,69.9,30.02,ENE,69,2.6,2.6,100,0.00,,,0.01,TxWx,2016-07-23 08:19:00,
2016-07-23 04:24:00,70.1,70.1,30.02,East,92,2.4,2.4,100,0.00,,,0.01,TxWx,2016-07-23 08:24:00,
2016-07-23 04:29:00,70.4,70.4,30.02,ESE,103,0.0,0.0,100,0.00,,,0.01,TxWx,2016-07-23 08:29:00,
2016-07-23 04:34:00,70.4,70.4,30.02,SE,130,0.0,0.0,100,0.00,,,0.01,TxWx,2016-07-23 08:34:00,
2016-07-23 04:39:00,70.4,70.4,30.02,East,79,0.0,0.0,100,0.00,,,0.01,TxWx,2016-07-23 08:39:00,
2016-07-23 04:44:00,70.3,70.3,30.01,ENE,60,0.0,0.0,100,0.00,,,0.01,TxWx,2016-07-23 08:44:00,
2016-07-23 04:49:00,69.9,69.9,30.01,SSW,202,1.7,2.0,100,0.00,,,0.01,TxWx,2016-07-23 08:49:00,
2016-07-23 04:54:00,69.9,69.9,30.01,South,188,0.0,0.0,100,0.00,,,0.01,TxWx,2016-07-23 08:54:00,
2016-07-23 04:59:00,69.9,69.9,30.01,South,178,0.0,0.0,100,0.00,,,0.01,TxWx,2016-07-23 08:59:00,
2016-07-23 05:04:00,69.8,69.8,30.01,North,7,0.0,0.0,100,0.00,,,0.01,TxWx,2016-07-23 09:04:00,
2016-07-23 05:09:00,69.8,69.8,30.01,SSW,204,0.0,0.0,100,0.00,,,0.01,TxWx,2016-07-23 09:09:00,
2016-07-23 05:14:00,69.9,69.9,30.02,SSW,192,0.0,0.0,100,0.00,,,0.01,TxWx,2016-07-23 09:14:00,
2016-07-23 05:19:00,69.9,69.9,30.02,SSW,192,0.0,0.0,100,0.00,,,0.01,TxWx,2016-07-23 09:19:00,
2016-07-23 05:24:00,69.8,69.8,30.02,NNE,31,0.0,0.0,100,0.00,,,0.01,TxWx,2016-07-23 09:24:00,
2016-07-23 05:29:00,69.6,69.6,30.02,NE,49,0.0,0.0,100,0.00,,,0.01,TxWx,2016-07-23 09:29:00,
2016-07-23 05:34:00,69.4,69.4,30.02,East,85,2.0,2.0,100,0.00,,,0.01,TxWx,2016-07-23 09:34:00,
2016-07-23 05:39:00,69.6,69.6,30.02,South,171,1.7,2.0,100,0.00,,,0.01,TxWx,2016-07-23 09:39:00,
2016-07-23 05:44:00,69.5,69.5,30.01,South,175,2.4,2.4,100,0.00,,,0.01,TxWx,2016-07-23 09:44:00,
2016-07-23 05:49:00,69.5,69.5,30.01,South,174,1.1,2.0,100,0.00,,,0.01,TxWx,2016-07-23 09:49:00,
2016-07-23 05:54:00,69.6,69.6,30.01,South,189,0.0,0.0,100,0.00,,,0.01,TxWx,2016-07-23 09:54:00,
2016-07-23 05:59:00,69.5,69.5,30.01,South,189,0.0,0.0,100,0.00,,,0.01,TxWx,2016-07-23 09:59:00,
2016-07-23 06:04:00,69.4,69.4,30.01,South,189,0.0,0.0,100,0.00,,,0.01,TxWx,2016-07-23 10:04:00,
2016-07-23 06:09:00,69.3,69.3,30.02,WSW,253,0.0,0.0,100,0.00,,,0.01,TxWx,2016-07-23 10:09:00,
2016-07-23 06:14:00,69.2,69.2,30.02,WSW,248,0.0,0.0,100,0.00,,,0.01,TxWx,2016-07-23 10:14:00,
2016-07-23 06:19:00,69.2,69.2,30.02,SSW,209,1.2,1.2,100,0.00,,,0.01,TxWx,2016-07-23 10:19:00,
2016-07-23 06:24:00,69.3,69.3,30.02,SW,228,1.2,1.2,100,0.00,,,0.01,TxWx,2016-07-23 10:24:00,
2016-07-23 06:29:00,69.2,69.2,30.02,SW,224,0.0,0.0,100,0.00,,,0.01,TxWx,2016-07-23 10:29:00,
2016-07-23 06:34:00,69.5,69.5,30.02,WSW,239,0.0,0.0,100,0.00,,,0.01,TxWx,2016-07-23 10:34:00,
2016-07-23 06:39:00,69.6,69.6,30.02,WSW,247,0.0,0.0,100,0.00,,,0.01,TxWx,2016-07-23 10:39:00,
2016-07-23 06:44:00,69.7,69.7,30.02,WSW,252,0.0,0.0,100,0.00,,,0.01,TxWx,2016-07-23 10:44:00,
2016-07-23 06:49:00,69.8,69.8,30.02,SSW,193,0.0,0.0,100,0.00,,,0.01,TxWx,2016-07-23 10:49:00,
2016-07-23 06:54:00,69.9,69.9,30.02,SE,142,0.0,0.0,100,0.00,,,0.01,TxWx,2016-07-23 10:54:00,
2016-07-23 06:59:00,69.8,69.8,30.02,ENE,60,2.7,2.7,100,0.00,,,0.01,TxWx,2016-07-23 10:59:00,
2016-07-23 07:04:00,69.3,69.3,30.02,East,85,1.7,1.7,100,0.00,,,0.01,TxWx,2016-07-23 11:04:00,
2016-07-23 07:09:00,69.8,69.8,30.02,South,191,0.0,0.0,100,0.00,,,0.01,TxWx,2016-07-23 11:09:00,
2016-07-23 07:14:00,70.1,70.1,30.02,SSW,192,5.7,5.7,100,0.00,,,0.01,TxWx,2016-07-23 11:14:00,
2016-07-23 07:19:00,70.3,70.3,30.02,SSE,163,3.2,3.2,100,0.00,,,0.01,TxWx,2016-07-23 11:19:00,
2016-07-23 07:24:00,70.6,70.6,30.02,ESE,123,1.1,1.1,100,0.00,,,0.01,TxWx,2016-07-23 11:24:00,
2016-07-23 07:29:00,70.9,70.9,30.02,SSE,164,3.2,3.2,100,0.00,,,0.01,TxWx,2016-07-23 11:29:00,
2016-07-23 07:34:00,71.3,71.3,30.02,SSE,150,0.0,0.0,100,0.00,,,0.01,TxWx,2016-07-23 11:34:00,
2016-07-23 07:39:00,71.7,71.7,30.02,SSE,151,0.0,0.0,100,0.00,,,0.01,TxWx,2016-07-23 11:39:00,
2016-07-23 07:44:00,72.1,72.1,30.02,SSE,150,0.0,0.0,100,0.00,,,0.01,TxWx,2016-07-23 11:44:00,
2016-07-23 07:49:00,72.6,72.6,30.03,WNW,289,0.0,0.0,100,0.00,,,0.01,TxWx,2016-07-23 11:49:00,
2016-07-23 07:54:00,73.3,73.3,30.03,North,349,2.2,2.2,100,0.00,,,0.01,TxWx,2016-07-23 11:54:00,
2016-07-23 07:59:00,73.6,73.6,30.03,NW,317,4.4,4.4,100,0.00,,,0.01,TxWx,2016-07-23 11:59:00,
2016-07-23 08:05:00,73.8,73.8,30.03,NW,308,4.2,4.2,100,0.00,,,0.01,TxWx,2016-07-23 12:05:00,
2016-07-23 08:09:00,74.1,74.1,30.03,NW,319,3.9,3.9,100,0.00,,,0.01,TxWx,2016-07-23 12:09:00,
2016-07-23 08:15:00,74.6,74.6,30.03,NW,305,3.2,3.2,100,0.00,,,0.01,TxWx,2016-07-23 12:15:00,
2016-07-23 08:20:00,75.2,75.2,30.03,NNW,342,0.0,0.0,100,0.00,,,0.01,TxWx,2016-07-23 12:20:00,
2016-07-23 08:25:00,75.0,75.0,30.03,North,8,2.0,2.0,100,0.00,,,0.01,TxWx,2016-07-23 12:25:00,
2016-07-23 08:30:00,75.5,75.5,30.03,NW,319,3.9,3.9,100,0.00,,,0.01,TxWx,2016-07-23 12:30:00,
2016-07-23 08:35:00,75.5,75.5,30.03,NNW,327,2.4,2.4,100,0.00,,,0.01,TxWx,2016-07-23 12:35:00,
2016-07-23 08:40:00,76.3,76.3,30.04,NW,309,2.6,2.6,100,0.00,,,0.01,TxWx,2016-07-23 12:40:00,
2016-07-23 08:45:00,76.5,76.5,30.04,WNW,298,0.9,1.0,100,0.00,,,0.01,TxWx,2016-07-23 12:45:00,
2016-07-23 08:50:00,77.2,77.2,30.04,NE,48,0.0,0.0,100,0.00,,,0.01,TxWx,2016-07-23 12:50:00,
2016-07-23 08:55:00,78.1,78.1,30.04,South,181,0.0,0.0,100,0.00,,,0.01,TxWx,2016-07-23 12:55:00,
2016-07-23 09:00:00,79.2,79.2,30.04,NNW,341,0.0,0.0,100,0.00,,,0.01,TxWx,2016-07-23 13:00:00,
2016-07-23 09:05:00,79.6,79.6,30.04,North,3,0.0,0.0,100,0.00,,,0.01,TxWx,2016-07-23 13:05:00,
2016-07-23 09:10:00,80.6,80.4,30.04,NE,46,0.0,0.0,99,0.00,,,0.01,TxWx,2016-07-23 13:10:00,
2016-07-23 09:15:00,80.4,79.3,30.04,ENE,67,0.2,0.0,96,0.00,,,0.01,TxWx,2016-07-23 13:15:00,
2016-07-23 09:20:00,81.1,79.4,30.04,East,84,4.6,4.6,94,0.00,,,0.01,TxWx,2016-07-23 13:20:00,
2016-07-23 09:25:00,81.1,78.4,30.04,ENE,62,0.0,0.0,91,0.00,,,0.01,TxWx,2016-07-23 13:25:00,
2016-07-23 09:30:00,81.7,78.5,30.04,NW,318,1.2,1.2,90,0.00,,,0.01,TxWx,2016-07-23 13:30:00,
2016-07-23 09:35:00,82.0,78.1,30.04,NNE,12,2.6,3.0,88,0.00,,,0.01,TxWx,2016-07-23 13:35:00,
2016-07-23 09:40:00,81.5,76.8,30.04,SE,146,1.5,1.5,85,0.00,,,0.01,TxWx,2016-07-23 13:40:00,
2016-07-23 09:45:00,81.4,76.6,30.04,SSW,199,2.6,2.6,85,0.00,,,0.01,TxWx,2016-07-23 13:45:00,
2016-07-23 09:50:00,82.1,77.7,30.04,South,174,0.0,0.0,86,0.00,,,0.01,TxWx,2016-07-23 13:50:00,
2016-07-23 09:55:00,82.2,77.3,30.04,SE,141,3.7,3.7,85,0.00,,,0.01,TxWx,2016-07-23 13:55:00,
2016-07-23 10:00:00,81.4,75.7,30.04,SSE,159,2.7,3.0,83,0.00,,,0.01,TxWx,2016-07-23 14:00:00,
2016-07-23 10:05:00,81.6,76.5,30.05,ENE,74,0.0,0.0,84,0.00,,,0.01,TxWx,2016-07-23 14:05:00,
2016-07-23 10:10:00,82.2,77.1,30.05,East,100,0.0,0.0,84,0.00,,,0.01,TxWx,2016-07-23 14:10:00,
2016-07-23 10:15:00,82.4,76.8,30.05,North,9,4.2,4.2,83,0.00,,,0.01,TxWx,2016-07-23 14:15:00,
2016-07-23 10:20:00,83.1,77.5,30.05,NNE,23,5.3,5.3,83,0.00,,,0.01,TxWx,2016-07-23 14:20:00,
2016-07-23 10:25:00,83.4,77.5,30.05,ENE,70,0.0,0.0,82,0.00,,,0.01,TxWx,2016-07-23 14:25:00,
2016-07-23 10:30:00,83.0,76.6,30.05,ESE,114,3.5,3.5,81,0.00,,,0.01,TxWx,2016-07-23 14:30:00,
2016-07-23 10:35:00,83.7,77.2,30.05,North,356,0.9,1.0,80,0.00,,,0.01,TxWx,2016-07-23 14:35:00,
2016-07-23 10:40:00,83.7,76.7,30.05,East,101,3.7,4.0,79,0.00,,,0.01,TxWx,2016-07-23 14:40:00,
2016-07-23 10:45:00,82.9,76.0,30.05,NE,42,5.9,5.9,79,0.00,,,0.01,TxWx,2016-07-23 14:45:00,
2016-07-23 10:50:00,83.1,76.6,30.05,WNW,295,1.7,2.0,80,0.00,,,0.01,TxWx,2016-07-23 14:50:00,
2016-07-23 10:55:00,83.0,76.4,30.05,SSE,164,0.0,0.0,80,0.00,,,0.01,TxWx,2016-07-23 14:55:00,
2016-07-23 11:00:00,84.0,76.9,30.05,WNW,283,4.4,4.4,79,0.00,,,0.01,TxWx,2016-07-23 15:00:00,
2016-07-23 11:05:00,84.1,76.4,30.06,West,276,3.2,3.2,77,0.00,,,0.01,TxWx,2016-07-23 15:05:00,
2016-07-23 11:10:00,84.3,76.5,30.05,WSW,245,5.5,5.5,77,0.00,,,0.01,TxWx,2016-07-23 15:10:00,
2016-07-23 11:15:00,84.6,76.5,30.05,NNE,25,2.0,2.0,76,0.00,,,0.01,TxWx,2016-07-23 15:15:00,
2016-07-23 11:20:00,84.9,75.2,30.06,North,350,0.0,0.0,72,0.00,,,0.01,TxWx,2016-07-23 15:20:00,
2016-07-23 11:25:00,85.8,76.3,30.06,ESE,111,5.9,5.9,73,0.00,,,0.01,TxWx,2016-07-23 15:25:00,
2016-07-23 11:30:00,85.9,75.6,30.06,ENE,57,6.8,6.8,71,0.00,,,0.01,TxWx,2016-07-23 15:30:00,
2016-07-23 11:35:00,86.2,75.7,30.06,SE,129,6.8,7.0,71,0.00,,,0.01,TxWx,2016-07-23 15:35:00,
2016-07-23 11:40:00,86.3,75.3,30.06,SE,131,4.2,4.2,70,0.00,,,0.01,TxWx,2016-07-23 15:40:00,
2016-07-23 11:45:00,86.4,77.0,30.06,SW,221,0.0,1.0,73,0.00,,,0.01,TxWx,2016-07-23 15:45:00,
2016-07-23 11:50:00,86.6,76.9,30.06,West,271,7.0,8.0,72,0.00,,,0.01,TxWx,2016-07-23 15:50:00,
2016-07-23 11:55:00,85.8,75.6,30.06,WNW,291,6.1,6.1,71,0.00,,,0.01,TxWx,2016-07-23 15:55:00,
2016-07-23 12:00:00,85.2,75.6,30.06,NW,307,7.9,8.0,73,0.00,,,0.01,TxWx,2016-07-23 16:00:00,
2016-07-23 12:05:00,84.6,75.0,30.06,North,349,3.2,4.0,73,0.00,,,0.01,TxWx,2016-07-23 16:05:00,
2016-07-23 12:10:00,85.4,75.8,30.05,NW,310,5.0,5.0,73,0.00,,,0.01,TxWx,2016-07-23 16:10:00,
2016-07-23 12:15:00,86.5,76.9,30.05,NE,36,5.3,5.3,73,0.00,,,0.01,TxWx,2016-07-23 16:15:00,
2016-07-23 12:20:00,87.1,77.0,30.05,NNW,331,11.0,11.0,72,0.00,,,0.01,TxWx,2016-07-23 16:20:00,
2016-07-23 12:25:00,87.1,76.1,30.05,NW,311,2.7,2.7,70,0.00,,,0.01,TxWx,2016-07-23 16:25:00,
2016-07-23 12:30:00,86.8,75.0,30.05,SSW,205,3.7,3.7,68,0.00,,,0.01,TxWx,2016-07-23 16:30:00,
2016-07-23 12:35:00,87.7,75.9,30.05,NNE,19,6.1,6.1,68,0.00,,,0.01,TxWx,2016-07-23 16:35:00,
2016-07-23 12:40:00,86.8,74.9,30.05,ENE,76,1.1,1.1,67,0.00,,,0.01,TxWx,2016-07-23 16:40:00,
2016-07-23 12:45:00,87.5,75.8,30.05,NNE,21,6.6,6.6,68,0.00,,,0.01,TxWx,2016-07-23 16:45:00,
2016-07-23 12:50:00,87.1,74.8,30.05,WNW,299,3.5,4.0,67,0.00,,,0.01,TxWx,2016-07-23 16:50:00,
2016-07-23 12:55:00,86.7,73.8,30.05,NW,319,7.2,7.2,65,0.00,,,0.01,TxWx,2016-07-23 16:55:00,
2016-07-23 13:00:00,87.0,74.5,30.05,ESE,108,5.0,5.0,66,0.00,,,0.01,TxWx,2016-07-23 17:00:00,
2016-07-23 13:05:00,87.8,74.7,30.04,NNE,23,7.2,7.2,65,0.00,,,0.01,TxWx,2016-07-23 17:05:00,
2016-07-23 13:10:00,88.3,74.8,30.04,WNW,300,5.0,5.0,64,0.00,,,0.01,TxWx,2016-07-23 17:10:00,
2016-07-23 13:15:00,88.6,76.0,30.04,North,349,8.1,9.0,66,0.00,,,0.01,TxWx,2016-07-23 17:15:00,
2016-07-23 13:20:00,87.6,75.5,30.04,ESE,103,10.7,10.7,67,0.00,,,0.01,TxWx,2016-07-23 17:20:00,
2016-07-23 13:25:00,87.1,72.8,30.03,ENE,69,8.5,9.0,62,0.00,,,0.01,TxWx,2016-07-23 17:25:00,
2016-07-23 13:30:00,87.3,74.1,30.03,NW,306,0.0,0.0,65,0.00,,,0.01,TxWx,2016-07-23 17:30:00,
2016-07-23 13:35:00,87.8,73.8,30.03,West,272,3.9,4.0,63,0.00,,,0.01,TxWx,2016-07-23 17:35:00,
2016-07-23 13:40:00,88.4,75.3,30.03,ESE,110,4.4,5.0,65,0.00,,,0.01,TxWx,2016-07-23 17:40:00,
2016-07-23 13:45:00,88.2,73.0,30.03,NNE,24,0.0,0.0,61,0.00,,,0.01,TxWx,2016-07-23 17:45:00,
2016-07-23 13:50:00,88.5,74.0,30.03,SSE,150,4.2,5.0,62,0.00,,,0.01,TxWx,2016-07-23 17:50:00,
2016-07-23 13:55:00,88.3,73.6,30.02,SE,129,0.0,0.0,62,0.00,,,0.01,TxWx,2016-07-23 17:55:00,
2016-07-23 14:00:00,88.8,74.5,30.02,South,172,0.0,0.0,63,0.00,,,0.01,TxWx,2016-07-23 18:00:00,
2016-07-23 14:05:00,89.2,74.8,30.02,ENE,68,7.7,8.0,62,0.00,,,0.01,TxWx,2016-07-23 18:05:00,
2016-07-23 14:10:00,88.3,73.9,30.02,NE,55,6.4,6.4,62,0.00,,,0.01,TxWx,2016-07-23 18:10:00,
2016-07-23 14:15:00,88.7,75.1,30.02,ENE,60,6.6,7.0,64,0.00,,,0.01,TxWx,2016-07-23 18:15:00,
2016-07-23 14:20:00,88.8,74.1,30.02,ESE,114,7.2,7.2,62,0.00,,,0.01,TxWx,2016-07-23 18:20:00,
2016-07-23 14:25:00,88.9,74.5,30.01,North,357,4.8,5.0,62,0.00,,,0.01,TxWx,2016-07-23 18:25:00,
2016-07-23 14:30:00,88.5,74.3,30.01,West,274,2.4,2.4,63,0.00,,,0.01,TxWx,2016-07-23 18:30:00,
2016-07-23 14:35:00,89.5,75.0,30.01,SSW,198,0.0,0.0,62,0.00,,,0.01,TxWx,2016-07-23 18:35:00,
2016-07-23 14:40:00,90.5,74.7,30.01,NNE,23,2.0,2.0,59,0.00,,,0.01,TxWx,2016-07-23 18:40:00,
2016-07-23 14:45:00,90.3,74.2,30.01,NNW,338,0.0,0.0,59,0.00,,,0.01,TxWx,2016-07-23 18:45:00,
2016-07-23 14:50:00,90.2,73.6,30.01,WNW,296,0.7,1.0,58,0.00,,,0.01,TxWx,2016-07-23 18:50:00,
2016-07-23 14:55:00,89.8,74.0,30.01,WSW,249,1.5,1.5,59,0.00,,,0.01,TxWx,2016-07-23 18:55:00,
2016-07-23 15:00:00,89.6,74.1,30.00,SE,125,5.3,5.3,60,0.00,,,0.01,TxWx,2016-07-23 19:00:00,
2016-07-23 15:05:00,89.0,73.4,30.00,NNE,27,5.3,5.3,60,0.00,,,0.01,TxWx,2016-07-23 19:05:00,
2016-07-23 15:10:00,88.8,73.8,30.00,ESE,102,5.5,6.0,61,0.00,,,0.01,TxWx,2016-07-23 19:10:00,
2016-07-23 15:15:00,88.3,74.1,30.00,NE,37,2.4,2.4,63,0.00,,,0.01,TxWx,2016-07-23 19:15:00,
2016-07-23 15:20:00,87.9,73.9,30.00,NNE,20,5.5,7.0,63,0.00,,,0.01,TxWx,2016-07-23 19:20:00,
2016-07-23 15:25:00,87.8,74.9,30.00,NE,38,9.4,10.0,65,0.00,,,0.01,TxWx,2016-07-23 19:25:00,
2016-07-23 15:30:00,87.3,74.5,30.00,ENE,57,6.1,6.1,65,0.00,,,0.01,TxWx,2016-07-23 19:30:00,
2016-07-23 15:35:00,87.4,74.7,30.00,East,86,8.5,9.0,66,0.00,,,0.01,TxWx,2016-07-23 19:35:00,
2016-07-23 15:40:00,87.4,75.3,30.00,East,86,8.3,8.3,67,0.00,,,0.01,TxWx,2016-07-23 19:40:00,
2016-07-23 15:45:00,86.9,74.9,29.99,NE,47,10.7,12.0,67,0.00,,,0.01,TxWx,2016-07-23 19:45:00,
2016-07-23 15:50:00,85.9,75.2,30.00,NE,44,10.7,10.7,70,0.00,,,0.01,TxWx,2016-07-23 19:50:00,
2016-07-23 15:55:00,85.1,74.7,30.00,NE,35,11.2,11.2,71,0.00,,,0.01,TxWx,2016-07-23 19:55:00,
2016-07-23 16:00:00,84.8,74.7,30.00,ENE,63,11.8,11.8,71,0.00,,,0.01,TxWx,2016-07-23 20:00:00,
2016-07-23 16:05:00,84.4,75.1,30.00,ENE,60,11.0,11.0,73,0.00,,,0.01,TxWx,2016-07-23 20:05:00,
2016-07-23 16:10:00,83.4,75.6,30.01,East,80,4.6,4.6,77,0.00,,,0.01,TxWx,2016-07-23 20:10:00,
2016-07-23 16:15:00,80.8,74.8,30.02,SE,143,9.4,11.0,81,0.01,,,0.02,TxWx,2016-07-23 20:15:00,
2016-07-23 16:20:00,76.0,71.5,30.03,East,101,10.1,10.1,86,0.04,,,0.05,TxWx,2016-07-23 20:20:00,
2016-07-23 16:25:00,73.5,71.8,30.04,SSE,154,10.5,10.5,94,0.29,,,0.30,TxWx,2016-07-23 20:25:00,
2016-07-23 16:30:00,71.9,71.7,30.03,SE,145,19.2,20.0,99,0.46,,,0.47,TxWx,2016-07-23 20:30:00,
2016-07-23 16:35:00,71.3,71.3,30.03,SE,144,10.5,13.0,100,0.62,,,0.63,TxWx,2016-07-23 20:35:00,
2016-07-23 16:40:00,70.4,70.4,30.03,SE,136,14.0,19.0,100,0.79,,,0.80,TxWx,2016-07-23 20:40:00,
2016-07-23 16:45:00,69.1,69.1,30.03,SSE,151,13.2,13.2,100,0.96,,,0.97,TxWx,2016-07-23 20:45:00,
2016-07-23 16:50:00,68.7,68.7,30.03,SE,145,8.8,9.0,100,1.07,,,1.08,TxWx,2016-07-23 20:50:00,
2016-07-23 16:55:00,69.2,69.2,30.03,SE,141,9.0,9.0,100,1.10,,,1.11,TxWx,2016-07-23 20:55:00,
2016-07-23 17:00:00,69.0,69.0,30.04,ESE,118,3.2,4.0,100,1.11,,,1.12,TxWx,2016-07-23 21:00:00,
2016-07-23 17:05:00,68.9,68.9,30.03,East,99,6.6,7.0,100,1.13,,,1.14,TxWx,2016-07-23 21:05:00,
2016-07-23 17:10:00,69.3,69.3,30.04,ENE,68,5.5,5.5,100,1.16,,,1.17,TxWx,2016-07-23 21:10:00,
2016-07-23 17:15:00,69.5,69.5,30.03,NE,49,7.2,7.2,100,1.20,,,1.22,TxWx,2016-07-23 21:15:00,
2016-07-23 17:20:00,69.8,69.8,30.03,NNW,328,3.9,4.0,100,1.21,,,1.26,TxWx,2016-07-23 21:20:00,
2016-07-23 17:25:00,70.0,70.0,30.03,West,271,4.8,5.0,100,1.03,,,1.33,TxWx,2016-07-23 21:25:00,
2016-07-23 17:30:00,69.9,69.9,30.02,WSW,253,5.0,5.0,100,0.89,,,1.36,TxWx,2016-07-23 21:30:00,
2016-07-23 17:35:00,70.1,70.1,30.02,WSW,241,2.6,3.0,100,0.74,,,1.37,TxWx,2016-07-23 21:35:00,
2016-07-23 17:40:00,70.2,70.2,30.01,WNW,290,0.0,0.0,100,0.58,,,1.38,TxWx,2016-07-23 21:40:00,
2016-07-23 17:45:00,70.3,70.3,30.01,SSW,202,2.2,2.2,100,0.41,,,1.38,TxWx,2016-07-23 21:45:00,
2016-07-23 17:50:00,71.0,71.0,30.01,SW,231,4.4,5.0,100,0.30,,,1.38,TxWx,2016-07-23 21:50:00,
2016-07-23 17:55:00,71.9,71.9,30.01,WSW,250,6.1,6.1,100,0.27,,,1.38,TxWx,2016-07-23 21:55:00,
2016-07-23 18:00:00,72.4,72.4,30.00,NW,308,0.0,0.0,100,0.26,,,1.38,TxWx,2016-07-23 22:00:00,
2016-07-23 18:05:00,72.4,72.4,30.00,ENE,69,1.2,1.2,100,0.24,,,1.38,TxWx,2016-07-23 22:05:00,
2016-07-23 18:10:00,72.9,72.9,30.00,SSE,166,0.0,0.0,100,0.21,,,1.38,TxWx,2016-07-23 22:10:00,
2016-07-23 18:15:00,73.0,73.0,30.00,South,173,0.0,0.0,100,0.16,,,1.38,TxWx,2016-07-23 22:15:00,
2016-07-23 18:20:00,73.1,73.1,30.00,South,171,0.0,0.0,100,0.12,,,1.38,TxWx,2016-07-23 22:20:00,
2016-07-23 18:25:00,73.6,73.6,30.00,SW,224,0.0,0.0,100,0.05,,,1.38,TxWx,2016-07-23 22:25:00,
2016-07-23 18:30:00,73.7,73.7,30.00,WNW,282,2.0,2.0,100,0.02,,,1.38,TxWx,2016-07-23 22:30:00,
2016-07-23 18:35:00,74.2,74.2,30.01,SW,228,0.0,0.0,100,0.01,,,1.38,TxWx,2016-07-23 22:35:00,
2016-07-23 18:40:00,74.9,74.9,30.00,WSW,257,0.0,0.0,100,0.00,,,1.38,TxWx,2016-07-23 22:40:00,
2016-07-23 18:45:00,75.7,75.7,30.00,ESE,104,1.2,1.2,100,0.00,,,1.38,TxWx,2016-07-23 22:45:00,
2016-07-23 18:50:00,76.4,76.4,30.00,SSW,206,2.4,2.4,100,0.00,,,1.38,TxWx,2016-07-23 22:50:00,
2016-07-23 18:55:00,76.7,76.7,30.00,ESE,108,2.7,2.7,100,0.00,,,1.38,TxWx,2016-07-23 22:55:00,
2016-07-23 19:05:00,76.0,75.8,30.00,East,93,3.9,4.0,99,0.00,,,1.38,TxWx,2016-07-23 23:05:00,
2016-07-23 19:10:00,75.5,75.4,30.00,SE,126,5.5,5.5,99,0.00,,,1.38,TxWx,2016-07-23 23:10:00,
2016-07-23 19:15:00,75.7,75.7,30.00,ESE,120,5.3,5.3,100,0.00,,,1.38,TxWx,2016-07-23 23:15:00,
2016-07-23 19:20:00,75.6,75.6,30.00,ESE,106,5.7,6.0,100,0.00,,,1.38,TxWx,2016-07-23 23:20:00,
2016-07-23 19:25:00,75.5,75.5,30.00,East,101,5.0,5.0,100,0.00,,,1.38,TxWx,2016-07-23 23:25:00,
2016-07-23 19:30:00,75.2,75.2,30.00,SSE,147,2.6,2.6,100,0.00,,,1.38,TxWx,2016-07-23 23:30:00,
2016-07-23 19:35:00,75.0,75.0,30.01,ESE,121,5.3,5.3,100,0.00,,,1.38,TxWx,2016-07-23 23:35:00,
2016-07-23 19:40:00,74.9,74.9,30.01,ESE,108,3.5,3.5,100,0.00,,,1.38,TxWx,2016-07-23 23:40:00,
2016-07-23 19:45:00,74.8,74.8,30.01,ESE,108,4.4,5.0,100,0.00,,,1.38,TxWx,2016-07-23 23:45:00,
2016-07-23 19:50:00,74.8,74.8,30.01,East,101,3.2,3.2,100,0.00,,,1.38,TxWx,2016-07-23 23:50:00,
2016-07-23 19:55:00,74.6,74.6,30.01,ENE,74,2.6,2.6,100,0.00,,,1.38,TxWx,2016-07-23 23:55:00,
2016-07-23 20:00:00,74.4,74.4,30.01,ENE,67,3.1,3.1,100,0.00,,,1.38,TxWx,2016-07-24 00:00:00,
2016-07-23 20:05:00,74.3,74.3,30.01,ENE,70,3.1,3.1,100,0.00,,,1.38,TxWx,2016-07-24 00:05:00,
2016-07-23 20:10:00,74.0,74.0,30.02,ENE,68,0.9,1.0,100,0.00,,,1.38,TxWx,2016-07-24 00:10:00,
2016-07-23 20:15:00,73.9,73.9,30.02,ESE,110,1.1,1.1,100,0.00,,,1.38,TxWx,2016-07-24 00:15:00,
2016-07-23 20:20:00,73.8,73.8,30.02,East,94,1.7,1.7,100,0.00,,,1.38,TxWx,2016-07-24 00:20:00,
2016-07-23 20:25:00,73.9,73.9,30.02,ENE,58,0.4,0.0,100,0.00,,,1.38,TxWx,2016-07-24 00:25:00,
2016-07-23 20:30:00,74.0,74.0,30.01,NE,55,0.0,0.0,100,0.00,,,1.38,TxWx,2016-07-24 00:30:00,
2016-07-23 20:35:00,74.0,74.0,30.01,East,84,0.0,0.0,100,0.00,,,1.38,TxWx,2016-07-24 00:35:00,
2016-07-23 20:40:00,73.7,73.7,30.01,WNW,299,3.1,3.1,100,0.00,,,1.38,TxWx,2016-07-24 00:40:00,
2016-07-23 20:45:00,73.3,73.3,30.01,NW,311,5.7,5.7,100,0.00,,,1.38,TxWx,2016-07-24 00:45:00,
2016-07-23 20:50:00,73.2,73.2,30.01,WNW,288,3.5,3.5,100,0.00,,,1.38,TxWx,2016-07-24 00:50:00,
2016-07-23 20:55:00,73.0,73.0,30.02,WSW,251,0.0,0.0,100,0.00,,,1.38,TxWx,2016-07-24 00:55:00,
2016-07-23 21:00:00,73.1,73.1,30.02,NNW,344,0.0,0.0,100,0.00,,,1.38,TxWx,2016-07-24 01:00:00,
2016-07-23 21:05:00,73.1,73.1,30.02,NNW,344,0.0,0.0,100,0.00,,,1.38,TxWx,2016-07-24 01:05:00,
2016-07-23 21:10:00,73.1,73.1,30.02,ENE,60,0.0,0.0,100,0.00,,,1.38,TxWx,2016-07-24 01:10:00,
2016-07-23 21:15:00,73.0,73.0,30.02,East,90,2.2,2.2,100,0.00,,,1.38,TxWx,2016-07-24 01:15:00,
2016-07-23 21:20:00,73.1,73.1,30.01,SE,131,1.7,2.0,100,0.00,,,1.38,TxWx,2016-07-24 01:20:00,
2016-07-23 21:25:00,72.9,72.9,30.01,SSE,164,0.0,0.0,100,0.00,,,1.38,TxWx,2016-07-24 01:25:00,
2016-07-23 21:30:00,72.6,72.6,30.02,West,259,3.1,3.1,100,0.00,,,1.38,TxWx,2016-07-24 01:30:00,
2016-07-23 21:35:00,72.6,72.6,30.02,WSW,240,0.0,0.0,100,0.00,,,1.38,TxWx,2016-07-24 01:35:00,
2016-07-23 21:40:00,72.4,72.4,30.02,WNW,302,3.7,3.7,100,0.00,,,1.38,TxWx,2016-07-24 01:40:00,
2016-07-23 21:46:00,72.4,72.4,30.02,West,261,2.0,2.0,100,0.00,,,1.38,TxWx,2016-07-24 01:46:00,
2016-07-23 21:51:00,72.4,72.4,30.03,WSW,251,0.0,0.0,100,0.00,,,1.38,TxWx,2016-07-24 01:51:00,
2016-07-23 21:56:00,72.5,72.5,30.03,ESE,113,0.0,0.0,100,0.00,,,1.38,TxWx,2016-07-24 01:56:00,
2016-07-23 22:01:00,72.5,72.5,30.03,South,170,0.0,0.0,100,0.00,,,1.38,TxWx,2016-07-24 02:01:00,
2016-07-23 22:06:00,72.5,72.5,30.03,South,170,0.0,0.0,100,0.00,,,1.38,TxWx,2016-07-24 02:06:00,
2016-07-23 22:11:00,72.4,72.4,30.03,ENE,71,2.2,2.2,100,0.00,,,1.38,TxWx,2016-07-24 02:11:00,
2016-07-23 22:16:00,72.3,72.3,30.03,NE,55,2.6,2.6,100,0.00,,,1.38,TxWx,2016-07-24 02:16:00,
2016-07-23 22:21:00,72.0,72.0,30.03,ENE,57,4.4,4.4,100,0.00,,,1.38,TxWx,2016-07-24 02:21:00,
2016-07-23 22:26:00,71.9,71.9,30.04,NE,34,2.7,3.0,100,0.00,,,1.38,TxWx,2016-07-24 02:26:00,
2016-07-23 22:31:00,71.9,71.9,30.04,East,79,0.0,0.0,100,0.00,,,1.38,TxWx,2016-07-24 02:31:00,
2016-07-23 22:36:00,71.7,71.7,30.04,SSW,202,2.7,3.0,100,0.00,,,1.38,TxWx,2016-07-24 02:36:00,
2016-07-23 22:41:00,71.9,71.9,30.04,WSW,238,0.0,0.0,100,0.00,,,1.38,TxWx,2016-07-24 02:41:00,
2016-07-23 22:46:00,72.0,72.0,30.04,WSW,256,0.0,0.0,100,0.00,,,1.38,TxWx,2016-07-24 02:46:00,
2016-07-23 22:51:00,72.0,72.0,30.05,SW,226,0.0,0.0,100,0.00,,,1.38,TxWx,2016-07-24 02:51:00,
2016-07-23 22:56:00,72.3,72.3,30.05,South,183,3.1,3.1,100,0.00,,,1.38,TxWx,2016-07-24 02:56:00,
2016-07-23 23:01:00,72.2,72.2,30.05,South,172,2.4,3.0,100,0.00,,,1.38,TxWx,2016-07-24 03:01:00,
2016-07-23 23:06:00,72.3,72.3,30.05,SSE,167,3.7,4.0,100,0.00,,,1.38,TxWx,2016-07-24 03:06:00,
2016-07-23 23:11:00,72.5,72.5,30.05,South,172,3.1,3.1,100,0.00,,,1.38,TxWx,2016-07-24 03:11:00,
2016-07-23 23:16:00,72.4,72.4,30.05,SSE,158,3.2,3.2,100,0.00,,,1.38,TxWx,2016-07-24 03:16:00,
2016-07-23 23:21:00,72.6,72.6,30.05,ESE,112,1.1,1.1,100,0.00,,,1.38,TxWx,2016-07-24 03:21:00,
2016-07-23 23:26:00,72.5,72.5,30.05,East,87,3.5,3.5,100,0.00,,,1.38,TxWx,2016-07-24 03:26:00,
2016-07-23 23:31:00,72.4,72.4,30.05,East,95,4.2,4.2,100,0.00,,,1.38,TxWx,2016-07-24 03:31:00,
2016-07-23 23:36:00,72.5,72.5,30.05,East,86,2.6,2.6,100,0.00,,,1.38,TxWx,2016-07-24 03:36:00,
2016-07-23 23:41:00,72.5,72.5,30.05,East,89,3.5,4.0,100,0.00,,,1.38,TxWx,2016-07-24 03:41:00,
2016-07-23 23:46:00,72.4,72.4,30.05,ESE,118,4.6,5.0,100,0.00,,,1.38,TxWx,2016-07-24 03:46:00,